Airfield :
LOGIN :

Register | Disclaimer

   EN    FR    IT 

 










Legend :    VFR   Marginal VFR   IFR   Intensive IFR   Very Intensive IFR
Visi :
Ceiling :
>= 8 km
>= 3000ft
5 to 8 km
1000 to 3000 ft
1500m to 5 km
500 to 1000 ft
800 to 1500m
200 to 500 ft
< 800m
< 200 ft
Symbols :   Thunderstorms  Fog  Heavy snow  Heavy precipitations  Wind > 20 kt
SIGMETs :     Misc.  Thunderstorms  Icing  Turbulence  Mountain Waves  Volcanic Ashes







- Airport Elevation : 287 ft
- Download approach charts


LFRL - Lanveoc Poulmic

CURRENT METAR :
  • 260500Z AUTO 06008KT CAVOK 16/15 Q1020

EXPIRED METARs :
  • 260430Z AUTO 03006KT CAVOK 16/15 Q1021
  • 260400Z AUTO 04007KT 010V070 9999 ///TCU 16/15 Q1021
  • 260330Z AUTO 05006KT 020V080 CAVOK 16/15 Q1021
  • 260300Z AUTO 06006KT 030V090 CAVOK 16/14 Q1021 NOSIG
  • 260230Z AUTO 05007KT 020V080 CAVOK 16/15 Q1021 NOSIG

TAF TAF LFRL
Valid from the 25 at 12:00 until the 26 at 12:00 UTC


251100Z 2512/2612 03008KT 9999 SCT023
TEMPO 2518/2603 CAVOK
TEMPO 2606/2612 05015G25KT 4000 SHRA SCT035TCU
No reported NOTAMs for that airfield.
2 SIGMETs reported for the Brest FIR (LFRR) :
 
Embedded thunderstorms
LFRR SIGMET 4 VALID 260400/260600 LFPW
LFRR BREST FIR/UIR EMBD TS OBS WI N4530 W00700 - N4745 W00245 - N4645 W00315 - N4500 W00600 - N4530 W00700 TOP FL360 MOV N 25KT NC=
Embedded thunderstorms
LFRR SIGMET 3 VALID 260400/260600 LFPW
LFRR BREST FIR/UIR EMBD TS OBS WI N4430 W00400 - N4645 W00245 - N4645 W00215 - N4415 W00300 - N4430 W00400 TOP FL360 MOV NNE 30KT NC=



MET'MAP, your aeronautical weather chart ! - Copyright ORBIFLY December 2007 - Disclaimer

ORBIFLY MET'MAP TEAM :

Programming & Development : Alexandra Zaïnal
Concept & Development : Baudouin d'Aumeries
Co-Development & Prog : Marc-Olivier Méhu
Technical & hardware support : Manuel Goepfert

Contact : metmap@orbifly.com




SOURCES & CREDITS :

   NOAA